Time;durP1;ratioP1;P1;durP2;ratioP2;P2;SDS_P1;SDS_P2;PMS_P1;PMS_P2;Temp;Humidity;BMP_temperature;BMP_pressure;BME280_temperature;BME280_humidity;BME280_pressure;Samples;Min_cycle;Max_cycle;Signal;HPM_P1;HPM_P2
2020/12/01 00:00:27;;;;;;;23.20;14.77;;;1.40;1.00;;;;;;5066764;28;20214;-70
2020/12/01 00:02:54;;;;;;;20.83;14.40;;;1.40;1.00;;;;;;5070219;28;20211;-71
2020/12/01 00:05:24;;;;;;;23.50;15.32;;;1.40;99.90;;;;;;5061082;28;20246;-70
2020/12/01 00:07:51;;;;;;;24.55;15.30;;;1.40;1.00;;;;;;5060900;28;20209;-69
2020/12/01 00:10:20;;;;;;;22.33;13.93;;;1.40;25.80;;;;;;5057240;28;20226;-70
2020/12/01 00:12:49;;;;;;;25.25;14.50;;;1.40;25.80;;;;;;5062074;28;20775;-70
2020/12/01 00:15:20;;;;;;;24.90;15.25;;;1.40;99.90;;;;;;5063755;28;20231;-70
2020/12/01 00:17:48;;;;;;;23.30;15.00;;;1.30;1.00;;;;;;5059636;28;20213;-69
2020/12/01 00:20:17;;;;;;;24.67;15.63;;;1.30;99.90;;;;;;5073564;28;20291;-70
2020/12/01 00:22:44;;;;;;;24.80;16.27;;;1.30;1.00;;;;;;5056293;28;20231;-70
2020/12/01 00:25:13;;;;;;;22.92;14.82;;;1.40;12.60;;;;;;5072395;28;20299;-71
2020/12/01 00:27:41;;;;;;;25.30;16.15;;;1.40;99.90;;;;;;5055745;28;20236;-70
2020/12/01 00:30:10;;;;;;;29.48;15.05;;;1.30;99.90;;;;;;5063207;28;20330;-70
2020/12/01 00:32:38;;;;;;;22.55;14.32;;;1.30;99.90;;;;;;5062576;28;20263;-70
2020/12/01 00:35:07;;;;;;;25.80;15.50;;;1.30;1.00;;;;;;5069667;28;20233;-70
2020/12/01 00:37:36;;;;;;;25.00;14.40;;;1.20;99.90;;;;;;5072954;28;20221;-71
2020/12/01 00:40:04;;;;;;;26.73;14.63;;;1.20;99.90;;;;;;5066319;28;20227;-70
2020/12/01 00:42:31;;;;;;;25.00;15.43;;;1.20;1.00;;;;;;5063727;28;20289;-71
2020/12/01 00:44:58;;;;;;;24.50;15.85;;;1.20;1.00;;;;;;5069976;28;20607;-71
2020/12/01 00:47:25;;;;;;;24.75;15.57;;;1.20;99.90;;;;;;5063370;28;20215;-71
2020/12/01 00:49:53;;;;;;;25.65;14.85;;;1.20;99.90;;;;;;5060746;28;20701;-70
2020/12/01 00:52:20;;;;;;;24.98;15.88;;;1.10;99.90;;;;;;5068605;28;20300;-72
2020/12/01 00:54:48;;;;;;;28.33;15.65;;;1.20;99.90;;;;;;5071674;28;20248;-70
2020/12/01 00:57:15;;;;;;;25.40;15.88;;;1.20;99.90;;;;;;5063098;28;20212;-71
2020/12/01 00:59:42;;;;;;;25.38;14.18;;;1.20;99.90;;;;;;5074395;28;20286;-71
2020/12/01 01:02:09;;;;;;;24.05;14.70;;;1.10;99.90;;;;;;5063551;28;20215;-70
2020/12/01 01:04:36;;;;;;;26.02;14.98;;;1.30;99.90;;;;;;5068569;28;20266;-71
2020/12/01 01:07:04;;;;;;;27.10;16.40;;;1.30;99.90;;;;;;5064988;28;20697;-70
2020/12/01 01:09:32;;;;;;;25.10;13.88;;;1.40;99.90;;;;;;5073770;28;20213;-71
2020/12/01 01:11:59;;;;;;;22.23;14.70;;;1.40;99.90;;;;;;5069121;28;20231;-70
2020/12/01 01:14:26;;;;;;;24.60;15.13;;;1.50;99.90;;;;;;5068763;28;20240;-71
2020/12/01 01:16:53;;;;;;;25.00;14.30;;;1.50;99.90;;;;;;5054046;28;20220;-71
2020/12/01 01:19:21;;;;;;;26.65;13.60;;;1.50;99.90;;;;;;5069217;28;20226;-70
2020/12/01 01:21:49;;;;;;;22.67;13.98;;;1.50;99.90;;;;;;5075418;28;20235;-71
2020/12/01 01:24:18;;;;;;;22.08;12.23;;;1.50;99.90;;;;;;5067109;28;20213;-71
2020/12/01 01:26:50;;;;;;;22.45;13.20;;;1.50;99.90;;;;;;5066817;28;20224;-70
2020/12/01 01:29:19;;;;;;;20.60;13.57;;;1.30;99.90;;;;;;5068776;28;20226;-71
2020/12/01 01:31:46;;;;;;;22.75;14.55;;;1.30;1.00;;;;;;5063624;28;20278;-71
2020/12/01 01:34:14;;;;;;;23.52;13.60;;;1.20;1.00;;;;;;5077893;28;20227;-71
2020/12/01 01:36:41;;;;;;;22.67;13.32;;;1.30;1.00;;;;;;5068660;28;20211;-72
2020/12/01 01:39:09;;;;;;;24.65;14.15;;;1.30;1.00;;;;;;5071186;28;20724;-73
2020/12/01 01:41:39;;;;;;;23.73;14.40;;;1.30;1.00;;;;;;5069374;28;20349;-72
2020/12/01 01:44:18;;;;;;;27.10;15.48;;;1.30;1.00;;;;;;5073277;28;20226;-71
2020/12/01 01:46:49;;;;;;;23.20;13.68;;;1.40;1.00;;;;;;5066849;28;20298;-72
2020/12/01 01:49:19;;;;;;;25.15;16.08;;;1.30;1.00;;;;;;5068934;28;20214;-72
2020/12/01 01:51:52;;;;;;;21.63;14.50;;;1.30;1.00;;;;;;5063440;28;20245;-72
2020/12/01 01:54:21;;;;;;;22.98;13.38;;;1.30;1.00;;;;;;5067978;28;20229;-72
2020/12/01 01:56:52;;;;;;;22.23;13.88;;;1.40;1.00;;;;;;5069502;28;20242;-72
2020/12/01 01:59:19;;;;;;;24.60;15.55;;;1.30;1.00;;;;;;5074337;28;20715;-72
2020/12/01 02:01:47;;;;;;;24.67;14.40;;;1.40;1.00;;;;;;5072447;28;20210;-72
2020/12/01 02:04:16;;;;;;;20.67;13.45;;;1.40;1.00;;;;;;5065664;28;20217;-72
2020/12/01 02:06:46;;;;;;;21.85;13.95;;;1.40;1.00;;;;;;5062858;28;20253;-72
2020/12/01 02:09:16;;;;;;;24.38;14.15;;;1.50;1.00;;;;;;5071411;28;20232;-71
2020/12/01 02:11:45;;;;;;;23.17;14.18;;;1.40;1.00;;;;;;5061870;28;20202;-72
2020/12/01 02:14:18;;;;;;;26.23;14.90;;;1.40;1.00;;;;;;5068121;28;20205;-72
2020/12/01 02:16:49;;;;;;;22.98;14.30;;;1.40;1.00;;;;;;5069714;28;20214;-73
2020/12/01 02:19:20;;;;;;;24.20;12.95;;;1.50;1.00;;;;;;5069780;28;20223;-72
2020/12/01 02:21:48;;;;;;;22.17;12.95;;;1.40;1.00;;;;;;5069113;28;20271;-71
2020/12/01 02:24:18;;;;;;;22.85;11.98;;;1.40;1.00;;;;;;5072175;28;20216;-71
2020/12/01 02:26:49;;;;;;;19.83;12.35;;;1.50;1.00;;;;;;5066604;28;20231;-70
2020/12/01 02:29:18;;;;;;;23.83;13.70;;;1.50;1.00;;;;;;5061413;28;20267;-71
2020/12/01 02:31:46;;;;;;;21.73;13.35;;;1.60;1.00;;;;;;5065429;28;20210;-71
2020/12/01 02:34:16;;;;;;;20.35;12.88;;;1.70;1.00;;;;;;5073423;28;20631;-71
2020/12/01 02:36:44;;;;;;;22.75;13.00;;;1.60;1.00;;;;;;5060749;28;20218;-71
2020/12/01 02:39:12;;;;;;;19.80;12.90;;;1.60;1.00;;;;;;5066877;28;20230;-71
2020/12/01 02:41:39;;;;;;;20.00;12.35;;;1.60;1.00;;;;;;5067162;28;20224;-72
2020/12/01 02:44:08;;;;;;;20.05;11.77;;;1.70;1.00;;;;;;5066523;28;20209;-71
2020/12/01 02:46:36;;;;;;;16.77;11.82;;;1.70;1.00;;;;;;5066720;28;20288;-71
2020/12/01 02:49:04;;;;;;;20.63;11.57;;;1.60;1.00;;;;;;5069177;28;20246;-71
2020/12/01 02:51:32;;;;;;;21.80;11.63;;;1.60;1.00;;;;;;5060392;28;20215;-70
2020/12/01 02:53:59;;;;;;;21.30;11.60;;;1.60;1.00;;;;;;5057628;28;20232;-70
2020/12/01 02:56:26;;;;;;;21.10;12.60;;;1.70;1.00;;;;;;5065699;28;20218;-71
2020/12/01 02:58:53;;;;;;;17.80;11.18;;;1.70;1.00;;;;;;5065536;28;20213;-71
2020/12/01 03:01:21;;;;;;;16.83;10.25;;;1.70;1.00;;;;;;5066128;28;20235;-70
2020/12/01 03:03:48;;;;;;;24.58;12.70;;;1.70;1.00;;;;;;5062893;28;20208;-71
2020/12/01 03:06:19;;;;;;;22.88;11.38;;;1.70;1.00;;;;;;5058326;28;20249;-72
2020/12/01 03:08:47;;;;;;;20.55;11.00;;;1.80;1.00;;;;;;5071457;28;20278;-72
2020/12/01 03:11:14;;;;;;;17.90;10.70;;;1.80;1.00;;;;;;5057452;28;20214;-71
2020/12/01 03:13:41;;;;;;;21.88;10.90;;;1.80;1.00;;;;;;5067728;28;20280;-70
2020/12/01 03:16:09;;;;;;;23.75;11.73;;;1.80;1.00;;;;;;5064638;28;20234;-71
2020/12/01 03:18:39;;;;;;;18.88;11.10;;;1.80;1.00;;;;;;5065922;28;20207;-71
2020/12/01 03:21:08;;;;;;;20.55;13.57;;;1.80;1.00;;;;;;5066384;28;20253;-70
2020/12/01 03:23:35;;;;;;;22.45;11.43;;;1.90;1.00;;;;;;5062197;28;20207;-71
2020/12/01 03:26:02;;;;;;;19.80;12.85;;;1.90;1.00;;;;;;5063037;28;20238;-71
2020/12/01 03:28:30;;;;;;;22.85;11.68;;;1.80;1.00;;;;;;5061712;28;20273;-72
2020/12/01 03:30:57;;;;;;;20.25;12.93;;;2.00;1.00;;;;;;5060240;28;20230;-71
2020/12/01 03:33:25;;;;;;;24.30;13.68;;;2.00;1.00;;;;;;5066718;28;20230;-71
2020/12/01 03:35:53;;;;;;;21.13;12.63;;;2.00;1.00;;;;;;5062777;28;20285;-71
2020/12/01 03:38:20;;;;;;;21.05;11.30;;;2.00;1.00;;;;;;5065431;28;20372;-70
2020/12/01 03:40:47;;;;;;;19.15;13.20;;;2.00;1.00;;;;;;5062354;28;20219;-70
2020/12/01 03:43:15;;;;;;;20.90;12.00;;;2.00;1.00;;;;;;5058594;28;20641;-72
2020/12/01 03:45:42;;;;;;;22.60;12.93;;;2.00;1.00;;;;;;5059220;28;20321;-72
2020/12/01 03:48:10;;;;;;;18.40;11.85;;;2.00;3.40;;;;;;5065302;28;20220;-72
2020/12/01 03:50:37;;;;;;;23.15;13.20;;;2.00;7.80;;;;;;5065738;28;20590;-71
2020/12/01 03:53:05;;;;;;;18.15;12.13;;;2.10;8.70;;;;;;5059644;28;20232;-71
2020/12/01 03:55:32;;;;;;;23.13;12.05;;;2.00;2.90;;;;;;5058669;28;20289;-72
2020/12/01 03:58:00;;;;;;;19.10;11.02;;;2.10;11.80;;;;;;5067124;28;20221;-72
2020/12/01 04:00:29;;;;;;;23.60;13.98;;;2.10;7.90;;;;;;5065666;28;20979;-72
2020/12/01 04:02:57;;;;;;;21.25;12.75;;;2.00;12.70;;;;;;5054316;28;20236;-71
2020/12/01 04:05:27;;;;;;;20.83;13.20;;;2.00;17.10;;;;;;5065335;28;20257;-71
2020/12/01 04:07:55;;;;;;;20.42;11.50;;;2.10;17.80;;;;;;5065037;28;20218;-71
2020/12/01 04:10:25;;;;;;;20.92;12.15;;;2.10;12.50;;;;;;5060065;28;20217;-71
2020/12/01 04:12:53;;;;;;;21.38;11.90;;;2.10;9.00;;;;;;5063998;28;20289;-71
2020/12/01 04:15:22;;;;;;;22.70;12.90;;;2.10;12.60;;;;;;5059610;28;20597;-71
2020/12/01 04:17:49;;;;;;;17.00;12.10;;;2.10;15.40;;;;;;5064650;28;20597;-70
2020/12/01 04:20:17;;;;;;;17.58;11.40;;;2.10;20.60;;;;;;5063168;28;20220;-71
2020/12/01 04:22:44;;;;;;;19.48;11.43;;;2.00;26.90;;;;;;5062844;28;20753;-72
2020/12/01 04:25:13;;;;;;;17.65;11.48;;;2.00;33.00;;;;;;5060677;28;20243;-71
2020/12/01 04:27:41;;;;;;;17.73;11.38;;;2.10;35.00;;;;;;5064192;28;20214;-72
2020/12/01 04:30:09;;;;;;;20.58;11.75;;;2.10;32.80;;;;;;5059000;28;20229;-72
2020/12/01 04:32:36;;;;;;;17.00;11.55;;;2.10;34.50;;;;;;5058343;28;20247;-73
2020/12/01 04:35:04;;;;;;;20.08;12.25;;;2.10;38.70;;;;;;5057907;28;20263;-73
2020/12/01 04:37:31;;;;;;;16.65;10.93;;;2.20;34.60;;;;;;5062235;28;20598;-73
2020/12/01 04:39:59;;;;;;;16.75;10.15;;;2.20;30.90;;;;;;5064771;28;20286;-72
2020/12/01 04:42:26;;;;;;;20.23;11.60;;;2.20;28.80;;;;;;5061311;28;20553;-72
2020/12/01 04:45:00;;;;;;;16.20;10.73;;;2.20;32.30;;;;;;5060142;28;20722;-73
2020/12/01 04:47:30;;;;;;;21.42;12.25;;;2.20;34.30;;;;;;5060082;28;20750;-73
2020/12/01 04:50:03;;;;;;;16.85;10.68;;;2.30;33.30;;;;;;5065399;28;20211;-72
2020/12/01 04:53:00;;;;;;;15.57;8.52;;;2.20;33.50;;;;;;5062659;28;20326;-72
2020/12/01 04:55:59;;;;;;;15.85;9.90;;;2.10;42.90;;;;;;5062064;28;20320;-72
2020/12/01 04:59:11;;;;;;;19.73;11.80;;;2.20;49.20;;;;;;5056328;28;20484;-71
2020/12/01 05:02:05;;;;;;;14.68;9.48;;;2.20;46.40;;;;;;5016675;28;20276;-72
2020/12/01 05:04:40;;;;;;;14.38;9.32;;;2.30;44.10;;;;;;5063234;28;20265;-69
2020/12/01 05:07:19;;;;;;;17.35;10.27;;;2.40;36.50;;;;;;5060764;28;20591;-69
2020/12/01 05:09:52;;;;;;;24.85;10.35;;;2.40;44.90;;;;;;5056684;28;20277;-72
2020/12/01 05:12:26;;;;;;;15.63;9.38;;;2.50;38.70;;;;;;5064328;28;20263;-72
2020/12/01 05:14:57;;;;;;;18.52;11.93;;;2.40;27.60;;;;;;5061548;28;20836;-72
2020/12/01 05:17:52;;;;;;;17.95;9.95;;;2.40;28.20;;;;;;5060434;28;20213;-72
2020/12/01 05:20:19;;;;;;;14.48;9.13;;;2.50;25.20;;;;;;5066000;28;20212;-73
2020/12/01 05:22:50;;;;;;;16.55;9.88;;;2.60;19.00;;;;;;5059402;28;20206;-71
2020/12/01 05:25:21;;;;;;;16.52;10.15;;;2.60;13.10;;;;;;5061308;28;20226;-72
2020/12/01 05:27:49;;;;;;;14.80;10.18;;;2.60;21.50;;;;;;5062632;28;20698;-71
2020/12/01 05:30:20;;;;;;;18.15;10.35;;;2.60;18.20;;;;;;5061655;28;20217;-73
2020/12/01 05:32:55;;;;;;;15.60;10.05;;;2.60;20.90;;;;;;5052661;28;20233;-71
2020/12/01 05:35:25;;;;;;;14.82;10.30;;;2.70;17.00;;;;;;5058003;28;20237;-71
2020/12/01 05:38:04;;;;;;;15.23;8.35;;;2.70;12.50;;;;;;5060210;28;20839;-71
2020/12/01 05:40:33;;;;;;;16.70;8.43;;;2.60;18.00;;;;;;5064080;28;20216;-71
2020/12/01 05:43:01;;;;;;;14.73;9.10;;;2.60;22.50;;;;;;5060838;28;20750;-72
2020/12/01 05:45:32;;;;;;;14.80;9.90;;;2.50;29.20;;;;;;5064184;28;20243;-71
2020/12/01 05:48:16;;;;;;;17.65;9.85;;;2.50;27.20;;;;;;5064726;28;20215;-70
2020/12/01 05:51:01;;;;;;;12.50;9.07;;;2.60;25.30;;;;;;5066821;28;20675;-72
2020/12/01 05:53:28;;;;;;;18.67;10.95;;;2.60;26.30;;;;;;5066118;28;20314;-71
2020/12/01 05:56:16;;;;;;;14.43;8.25;;;2.60;25.30;;;;;;5062316;28;20231;-72
2020/12/01 05:58:46;;;;;;;13.35;8.82;;;2.70;29.80;;;;;;5063573;28;20242;-72
2020/12/01 06:01:14;;;;;;;11.45;7.03;;;2.80;25.30;;;;;;5065731;28;20215;-72
2020/12/01 06:04:01;;;;;;;13.13;9.10;;;2.80;17.90;;;;;;5065657;28;20479;-73
2020/12/01 06:07:00;;;;;;;11.05;7.20;;;2.90;13.20;;;;;;5059022;28;20218;-73
2020/12/01 06:09:56;;;;;;;8.65;5.60;;;3.00;6.00;;;;;;5046950;28;20229;-73
2020/12/01 06:12:40;;;;;;;9.45;6.70;;;2.90;1.00;;;;;;5052836;28;20228;-73
2020/12/01 06:15:14;;;;;;;15.55;9.27;;;2.80;4.40;;;;;;5066732;28;20634;-73
2020/12/01 06:17:47;;;;;;;12.35;8.35;;;2.90;13.50;;;;;;5068037;28;20215;-73
2020/12/01 06:20:20;;;;;;;10.63;8.00;;;2.80;11.30;;;;;;5065471;28;20398;-72
2020/12/01 06:23:14;;;;;;;13.90;9.40;;;2.90;19.40;;;;;;5065966;28;20491;-72
2020/12/01 06:25:58;;;;;;;15.07;8.27;;;2.90;7.50;;;;;;5065850;28;20231;-72
2020/12/01 06:29:11;;;;;;;14.90;7.60;;;2.80;8.40;;;;;;5069144;28;20838;-72
2020/12/01 06:32:11;;;;;;;10.38;6.43;;;2.80;16.10;;;;;;4968546;28;20677;-72
2020/12/01 06:35:03;;;;;;;6.10;5.22;;;2.80;14.30;;;;;;5065390;28;20594;-72
2020/12/01 06:37:44;;;;;;;8.57;6.85;;;2.80;10.50;;;;;;5062656;28;20223;-72
2020/12/01 06:40:37;;;;;;;9.05;7.68;;;2.80;14.70;;;;;;5066559;28;20583;-72
2020/12/01 06:43:10;;;;;;;9.73;5.72;;;2.80;12.90;;;;;;5067528;28;20212;-71
2020/12/01 06:45:41;;;;;;;7.00;5.38;;;2.80;21.20;;;;;;5065899;28;20240;-73
2020/12/01 06:48:13;;;;;;;9.93;6.40;;;2.80;22.10;;;;;;5067645;28;20293;-73
2020/12/01 06:50:48;;;;;;;5.95;3.88;;;2.80;16.90;;;;;;5068256;28;20723;-72
2020/12/01 06:53:28;;;;;;;6.40;4.65;;;2.80;17.50;;;;;;5067798;28;20292;-71
2020/12/01 06:55:57;;;;;;;4.40;3.72;;;2.80;24.80;;;;;;5065220;28;20259;-73
2020/12/01 06:58:38;;;;;;;7.40;5.10;;;2.80;20.00;;;;;;5068715;28;20306;-72
2020/12/01 07:01:25;;;;;;;5.45;3.83;;;2.80;23.20;;;;;;5064581;28;20203;-73
2020/12/01 07:04:19;;;;;;;5.57;3.67;;;2.90;20.60;;;;;;5070083;28;20200;-72
2020/12/01 07:06:49;;;;;;;4.30;2.97;;;2.90;13.10;;;;;;5068739;28;20544;-73
2020/12/01 07:09:18;;;;;;;4.65;3.20;;;2.90;1.00;;;;;;5064249;28;20644;-73
2020/12/01 07:12:00;;;;;;;10.52;6.55;;;2.80;1.00;;;;;;5064701;28;20211;-74
2020/12/01 07:14:37;;;;;;;3.78;3.05;;;2.80;1.40;;;;;;5063781;28;20257;-73
2020/12/01 07:17:16;;;;;;;5.75;3.22;;;2.80;3.60;;;;;;5065816;28;20254;-73
2020/12/01 07:19:50;;;;;;;4.75;2.70;;;2.80;2.70;;;;;;5064984;28;20207;-74
2020/12/01 07:22:27;;;;;;;3.20;2.50;;;2.80;1.00;;;;;;5064341;28;20218;-73
2020/12/01 07:25:03;;;;;;;4.82;2.70;;;2.80;2.70;;;;;;5063775;28;20226;-73
2020/12/01 07:27:40;;;;;;;4.13;2.58;;;2.80;2.90;;;;;;5065666;28;20713;-73
2020/12/01 07:30:16;;;;;;;3.50;2.90;;;2.80;5.40;;;;;;5066431;28;20366;-73
2020/12/01 07:32:48;;;;;;;5.13;3.22;;;2.90;2.70;;;;;;5063273;28;20203;-73
2020/12/01 07:35:29;;;;;;;3.05;2.75;;;2.90;1.00;;;;;;5065163;28;20228;-74
2020/12/01 07:38:03;;;;;;;5.20;2.38;;;2.90;1.00;;;;;;5066643;28;21013;-76
2020/12/01 07:40:45;;;;;;;3.65;2.97;;;3.00;1.00;;;;;;5064508;28;20569;-70
2020/12/01 07:43:15;;;;;;;4.15;2.30;;;2.90;1.00;;;;;;5066917;28;20768;-76
2020/12/01 07:45:43;;;;;;;4.22;3.42;;;3.00;1.00;;;;;;5063304;28;20246;-76
2020/12/01 07:48:14;;;;;;;2.33;2.05;;;3.10;1.00;;;;;;5065734;28;20222;-75
2020/12/01 07:50:42;;;;;;;3.05;2.38;;;3.10;1.00;;;;;;5065204;28;20273;-74
2020/12/01 07:53:10;;;;;;;2.60;2.40;;;3.10;1.00;;;;;;5062210;28;20233;-75
2020/12/01 07:55:45;;;;;;;2.85;2.20;;;3.00;1.00;;;;;;5066643;28;20253;-75
2020/12/01 07:58:16;;;;;;;4.32;2.08;;;2.90;1.00;;;;;;5065528;28;20744;-76
2020/12/01 08:00:51;;;;;;;2.55;2.33;;;2.80;1.00;;;;;;5065313;28;20217;-74
2020/12/01 08:03:23;;;;;;;2.35;1.98;;;2.80;1.00;;;;;;5063825;28;20203;-76
2020/12/01 08:05:51;;;;;;;17.85;8.63;;;3.00;1.00;;;;;;5063847;28;20228;-76
2020/12/01 08:08:20;;;;;;;9.88;5.30;;;3.10;1.00;;;;;;5065757;28;20227;-74
2020/12/01 08:10:49;;;;;;;8.05;5.70;;;3.10;1.00;;;;;;5063754;28;20217;-76
2020/12/01 08:13:19;;;;;;;5.10;4.30;;;3.20;1.00;;;;;;5063439;28;20223;-76
2020/12/01 08:15:47;;;;;;;5.63;2.40;;;3.20;1.00;;;;;;5064495;28;20287;-76
2020/12/01 08:18:16;;;;;;;1.88;1.70;;;3.20;1.00;;;;;;5065228;28;20226;-77
2020/12/01 08:20:44;;;;;;;2.28;2.08;;;3.20;1.00;;;;;;5061822;28;20206;-76
2020/12/01 08:23:17;;;;;;;2.95;1.88;;;3.10;1.00;;;;;;5065697;28;20266;-77
2020/12/01 08:25:48;;;;;;;1.83;1.60;;;3.10;1.00;;;;;;5064546;28;20227;-76
2020/12/01 08:28:24;;;;;;;1.90;1.50;;;3.10;1.00;;;;;;5066431;28;20674;-75
2020/12/01 08:31:04;;;;;;;1.70;1.60;;;3.00;1.00;;;;;;5061924;28;20212;-76
2020/12/01 08:33:48;;;;;;;1.70;1.60;;;3.10;1.00;;;;;;5080929;28;20321;-76
2020/12/01 08:36:29;;;;;;;3.10;1.80;;;3.30;1.00;;;;;;5059989;28;20249;-76
2020/12/01 08:39:32;;;;;;;2.30;1.63;;;3.40;1.00;;;;;;5063149;28;20577;-76
2020/12/01 08:42:14;;;;;;;1.90;1.80;;;3.40;1.00;;;;;;5064100;28;20681;-76
2020/12/01 08:44:48;;;;;;;1.70;1.60;;;3.50;1.00;;;;;;5059898;28;20226;-77
2020/12/01 08:47:20;;;;;;;1.77;1.60;;;3.60;1.00;;;;;;5060059;28;20219;-77
2020/12/01 08:49:50;;;;;;;1.92;1.48;;;3.60;1.00;;;;;;5062834;28;20214;-77
2020/12/01 08:52:42;;;;;;;1.80;1.40;;;3.50;1.00;;;;;;5059908;28;20211;-77
2020/12/01 08:55:23;;;;;;;2.17;1.70;;;3.40;1.00;;;;;;5059125;28;20248;-77
2020/12/01 08:57:59;;;;;;;2.08;1.83;;;3.40;1.00;;;;;;5060126;28;21601;-77
2020/12/01 09:00:28;;;;;;;2.53;1.45;;;3.40;1.00;;;;;;5063351;28;20954;-77
2020/12/01 09:03:08;;;;;;;2.03;1.92;;;3.50;1.00;;;;;;5064804;28;20211;-77
2020/12/01 09:05:46;;;;;;;1.50;1.20;;;3.50;1.00;;;;;;5061574;28;20240;-76
2020/12/01 09:11:12;;;;;;;2.97;1.77;;;3.70;1.00;;;;;;5062550;28;20315;-76
2020/12/01 09:13:49;;;;;;;1.58;1.48;;;3.80;1.00;;;;;;5065941;28;20579;-75
2020/12/01 09:16:23;;;;;;;1.55;1.45;;;3.90;1.00;;;;;;5070088;28;20237;-76
2020/12/01 09:19:15;;;;;;;1.98;1.70;;;3.90;1.00;;;;;;5081894;28;20619;-76
2020/12/01 09:21:56;;;;;;;2.42;1.50;;;4.00;1.00;;;;;;5067026;28;20206;-76
2020/12/01 09:24:28;;;;;;;1.10;1.00;;;4.00;1.00;;;;;;5066428;28;20226;-75
2020/12/01 09:27:01;;;;;;;1.70;1.35;;;3.90;1.00;;;;;;5067499;28;20220;-75
2020/12/01 09:29:28;;;;;;;2.65;2.10;;;3.80;1.00;;;;;;5065377;28;20210;-76
2020/12/01 09:31:56;;;;;;;5.18;2.60;;;3.80;1.00;;;;;;5068451;28;20223;-76
2020/12/01 09:34:24;;;;;;;6.32;3.60;;;3.60;1.00;;;;;;5064878;28;20243;-76
2020/12/01 09:36:58;;;;;;;3.90;3.00;;;3.50;1.00;;;;;;5064940;28;20270;-76
2020/12/01 09:39:25;;;;;;;3.60;2.60;;;3.60;1.00;;;;;;5066938;28;20209;-76
2020/12/01 09:42:00;;;;;;;4.32;2.78;;;3.80;1.00;;;;;;5067770;28;20219;-77
2020/12/01 09:44:48;;;;;;;3.38;2.40;;;3.80;1.00;;;;;;5065785;28;20235;-75
2020/12/01 09:47:20;;;;;;;2.47;2.28;;;3.60;1.00;;;;;;5069579;28;20267;-76
2020/12/01 09:49:47;;;;;;;4.25;3.05;;;3.60;1.00;;;;;;5065456;28;20321;-75
2020/12/01 09:52:19;;;;;;;3.35;2.58;;;3.60;1.00;;;;;;5063427;28;20227;-76
2020/12/01 09:54:50;;;;;;;3.83;2.38;;;3.60;1.00;;;;;;5065184;28;20245;-75
2020/12/01 09:57:23;;;;;;;2.40;2.20;;;3.60;1.00;;;;;;5066519;28;20219;-76
2020/12/01 10:00:23;;;;;;;3.55;3.25;;;3.70;1.00;;;;;;5065627;28;20213;-75
2020/12/01 10:03:17;;;;;;;4.07;2.35;;;3.80;1.00;;;;;;5063801;28;20618;-75
2020/12/01 10:08:36;;;;;;;3.28;2.97;;;3.80;1.00;;;;;;5064122;28;20331;-75
2020/12/01 10:11:27;;;;;;;4.13;3.00;;;3.70;1.00;;;;;;5063934;28;20208;-75
2020/12/01 10:14:02;;;;;;;3.30;3.00;;;3.60;1.00;;;;;;5063122;28;20578;-75
2020/12/01 10:36:17;;;;;;;5.63;5.13;;;3.40;1.00;;;;;;5066748;28;20243;-74
2020/12/01 10:38:45;;;;;;;5.88;5.22;;;3.60;1.00;;;;;;5067730;28;20226;-73
2020/12/01 10:41:13;;;;;;;5.32;3.55;;;3.70;1.00;;;;;;5065582;28;20209;-76
2020/12/01 10:43:41;;;;;;;5.90;3.75;;;3.80;1.00;;;;;;5066369;28;20236;-75
2020/12/01 10:46:09;;;;;;;5.80;3.75;;;3.90;1.00;;;;;;5066311;28;20895;-79
2020/12/01 10:48:36;;;;;;;6.43;4.43;;;3.90;1.00;;;;;;5065906;28;20535;-76
2020/12/01 10:51:05;;;;;;;4.03;3.63;;;3.90;1.00;;;;;;5063622;28;20774;-76
2020/12/01 10:53:32;;;;;;;5.38;4.18;;;3.90;1.00;;;;;;5062583;28;20215;-76
2020/12/01 10:56:00;;;;;;;3.90;3.55;;;3.90;1.00;;;;;;5065247;28;20600;-75
2020/12/01 10:58:28;;;;;;;4.30;3.50;;;3.70;1.00;;;;;;5067827;28;20214;-76
2020/12/01 11:00:55;;;;;;;5.10;3.95;;;3.60;1.00;;;;;;5065773;28;20309;-76
2020/12/01 11:03:23;;;;;;;4.90;4.05;;;3.70;1.00;;;;;;5065812;28;20218;-75
2020/12/01 11:05:50;;;;;;;5.60;4.50;;;3.80;1.00;;;;;;5064857;28;20316;-75
2020/12/01 11:08:17;;;;;;;4.78;4.22;;;3.80;1.00;;;;;;5067434;28;20216;-76
2020/12/01 11:10:44;;;;;;;6.38;3.67;;;3.70;1.00;;;;;;5065515;28;20698;-76
2020/12/01 11:13:11;;;;;;;3.92;3.47;;;3.70;1.00;;;;;;5069939;28;20234;-75
2020/12/01 11:15:39;;;;;;;4.80;4.30;;;3.70;1.00;;;;;;5065093;28;20243;-76
2020/12/01 11:18:06;;;;;;;8.20;3.83;;;3.70;1.00;;;;;;5061608;28;20618;-77
2020/12/01 11:20:34;;;;;;;5.45;3.53;;;3.70;1.00;;;;;;5062508;28;20596;-76
2020/12/01 11:23:02;;;;;;;3.05;2.85;;;3.70;1.00;;;;;;5064312;28;20229;-75
2020/12/01 11:25:29;;;;;;;5.05;4.20;;;3.70;1.00;;;;;;5062806;28;20239;-77
2020/12/01 11:27:56;;;;;;;4.18;3.85;;;3.70;1.00;;;;;;5066041;28;20212;-76
2020/12/01 11:30:25;;;;;;;3.75;3.45;;;3.70;1.00;;;;;;5062731;28;20636;-76
2020/12/01 11:32:53;;;;;;;4.43;2.83;;;3.60;1.00;;;;;;5080495;28;20681;-75
2020/12/01 11:35:22;;;;;;;3.08;2.78;;;3.60;1.00;;;;;;5060877;28;20233;-74
2020/12/01 11:37:49;;;;;;;4.15;3.22;;;3.70;1.00;;;;;;5062363;28;20570;-75
2020/12/01 11:40:17;;;;;;;4.40;3.88;;;3.80;1.00;;;;;;5064502;28;20215;-75
2020/12/01 11:42:44;;;;;;;3.85;3.55;;;3.80;1.00;;;;;;5066388;28;20691;-75
2020/12/01 11:45:13;;;;;;;6.30;4.83;;;3.90;1.00;;;;;;5065577;28;20967;-75
2020/12/01 11:47:40;;;;;;;4.88;4.15;;;3.90;1.00;;;;;;5064761;28;20464;-75
2020/12/01 11:50:10;;;;;;;4.78;4.28;;;3.90;1.00;;;;;;5065610;28;20226;-74
2020/12/01 11:52:37;;;;;;;6.57;5.10;;;3.80;1.00;;;;;;5061450;28;20226;-74
2020/12/01 11:55:19;;;;;;;4.07;3.70;;;3.70;1.00;;;;;;5062846;28;20236;-74
2020/12/01 11:57:46;;;;;;;5.55;3.70;;;3.80;1.00;;;;;;5066139;28;20531;-74
2020/12/01 12:00:18;;;;;;;6.10;4.05;;;3.90;1.00;;;;;;5063094;28;20208;-73
2020/12/01 12:02:45;;;;;;;5.97;3.38;;;3.80;1.00;;;;;;5062975;28;20214;-73
2020/12/01 12:05:14;;;;;;;4.50;3.95;;;3.80;1.00;;;;;;5064301;28;20769;-74
2020/12/01 12:07:41;;;;;;;2.85;2.53;;;3.70;1.00;;;;;;5060891;28;20217;-74
2020/12/01 12:10:08;;;;;;;3.30;2.83;;;3.70;1.00;;;;;;5064869;28;20219;-74
2020/12/01 12:12:36;;;;;;;4.32;2.47;;;3.60;1.00;;;;;;5062981;28;20213;-73
2020/12/01 12:15:03;;;;;;;3.50;3.20;;;3.60;1.00;;;;;;5061810;28;20328;-73
2020/12/01 12:17:31;;;;;;;3.05;2.75;;;3.70;1.00;;;;;;5060862;28;20227;-74
2020/12/01 12:19:58;;;;;;;2.97;2.55;;;3.90;1.00;;;;;;5068156;28;20615;-74
2020/12/01 12:22:26;;;;;;;3.83;2.53;;;3.90;1.00;;;;;;5061598;28;20217;-74
2020/12/01 12:24:53;;;;;;;2.80;2.30;;;3.90;1.00;;;;;;5063927;28;20638;-74
2020/12/01 12:27:21;;;;;;;3.72;2.95;;;4.00;1.00;;;;;;5064890;28;20221;-73
2020/12/01 12:29:48;;;;;;;3.47;2.70;;;4.10;1.00;;;;;;5061149;28;20225;-74
2020/12/01 12:32:16;;;;;;;5.63;3.85;;;4.00;1.00;;;;;;5060828;28;20306;-75
2020/12/01 12:34:43;;;;;;;6.22;5.18;;;3.90;1.00;;;;;;5061226;28;20323;-75
2020/12/01 12:37:10;;;;;;;10.10;6.60;;;3.90;1.00;;;;;;5060936;28;20259;-74
2020/12/01 12:39:38;;;;;;;5.50;4.63;;;3.80;1.00;;;;;;5061887;28;20681;-74
2020/12/01 12:42:06;;;;;;;6.78;4.43;;;3.80;1.00;;;;;;5061385;28;20238;-74
2020/12/01 12:44:33;;;;;;;8.55;6.90;;;3.80;1.00;;;;;;5064678;28;20225;-76
2020/12/01 12:47:01;;;;;;;14.70;7.10;;;3.90;1.00;;;;;;5059813;28;20226;-75
2020/12/01 12:49:28;;;;;;;11.77;7.55;;;3.80;1.00;;;;;;5065944;28;20226;-74
2020/12/01 12:51:55;;;;;;;7.82;6.40;;;3.90;1.00;;;;;;5067535;28;20217;-74
2020/12/01 12:54:23;;;;;;;9.57;6.82;;;3.80;1.00;;;;;;5068086;28;20230;-75
2020/12/01 12:56:51;;;;;;;6.53;5.40;;;3.80;1.00;;;;;;5065784;28;20221;-75
2020/12/01 12:59:18;;;;;;;5.22;4.03;;;3.60;1.00;;;;;;5066716;28;20659;-75
2020/12/01 13:01:45;;;;;;;6.22;4.00;;;3.60;1.00;;;;;;5065403;28;20210;-75
2020/12/01 13:04:12;;;;;;;4.15;3.53;;;3.60;1.00;;;;;;5064113;28;20211;-75
2020/12/01 13:06:39;;;;;;;4.32;3.92;;;3.50;1.00;;;;;;5065901;28;20941;-75
2020/12/01 13:09:07;;;;;;;3.45;3.15;;;3.60;1.00;;;;;;5066245;28;20234;-75
2020/12/01 13:11:34;;;;;;;5.15;4.05;;;3.50;1.00;;;;;;5065101;28;20243;-75
2020/12/01 13:14:03;;;;;;;5.65;4.22;;;3.60;1.00;;;;;;5064939;28;20212;-75
2020/12/01 13:16:30;;;;;;;4.95;4.45;;;3.60;1.00;;;;;;5064111;28;20226;-75
2020/12/01 13:18:57;;;;;;;5.75;3.70;;;3.70;1.00;;;;;;5069225;28;20603;-75
2020/12/01 13:21:24;;;;;;;4.22;3.83;;;3.80;1.00;;;;;;5063433;28;20695;-75
2020/12/01 13:23:52;;;;;;;4.97;4.57;;;3.90;1.00;;;;;;5065164;28;20557;-75
2020/12/01 13:26:20;;;;;;;3.78;3.47;;;3.90;1.00;;;;;;5068008;28;20480;-75
2020/12/01 13:28:48;;;;;;;4.80;4.30;;;4.00;1.00;;;;;;5063465;28;20219;-76
2020/12/01 13:31:16;;;;;;;3.78;3.20;;;4.00;1.00;;;;;;5065382;28;20755;-75
2020/12/01 13:33:44;;;;;;;2.85;2.65;;;3.90;1.00;;;;;;5065120;28;20216;-76
2020/12/01 13:36:12;;;;;;;3.63;3.33;;;3.90;1.00;;;;;;5067770;28;20318;-77
2020/12/01 13:38:39;;;;;;;2.90;2.70;;;3.80;1.00;;;;;;5068276;28;20811;-77
2020/12/01 13:41:06;;;;;;;4.18;3.88;;;3.80;1.00;;;;;;5066134;28;20213;-75
2020/12/01 13:43:34;;;;;;;4.18;2.80;;;3.90;1.00;;;;;;5066415;28;20294;-75